Time,TemperatureF,DewpointF,PressureIn,WindDirection,WindDirectionDegrees,WindSpeedMPH,WindSpeedGustMPH,Humidity,HourlyPrecipIn,Conditions,Clouds,dailyrainin,SoftwareType,DateUTC
2013-04-05 00:02:00,39.9,21.7,30.01,ESE,113,0.0,0.0,48,0.00,,,0.00,WUHU216HW,2013-04-05 04:02:00,
2013-04-05 00:08:00,39.9,21.7,30.01,ESE,113,0.0,0.0,48,0.00,,,0.00,WUHU216HW,2013-04-05 04:08:00,
2013-04-05 00:14:00,39.7,21.3,30.02,ESE,113,0.0,0.0,48,0.00,,,0.00,WUHU216HW,2013-04-05 04:14:00,
2013-04-05 00:19:00,39.3,21.7,30.01,ESE,113,0.0,0.0,49,0.00,,,0.00,WUHU216HW,2013-04-05 04:19:00,
2013-04-05 00:24:00,39.0,21.4,30.01,ESE,113,0.0,0.0,49,0.00,,,0.00,WUHU216HW,2013-04-05 04:24:00,
2013-04-05 00:29:00,38.8,21.2,30.01,ESE,113,0.0,0.0,49,0.00,,,0.00,WUHU216HW,2013-04-05 04:29:00,
2013-04-05 00:35:00,38.8,21.2,30.01,ESE,113,0.0,0.0,49,0.00,,,0.00,WUHU216HW,2013-04-05 04:35:00,
2013-04-05 00:40:00,38.3,21.2,30.01,ESE,113,0.0,0.0,50,0.00,,,0.00,WUHU216HW,2013-04-05 04:40:00,
2013-04-05 00:45:00,38.1,21.1,30.01,ESE,113,0.0,0.0,50,0.00,,,0.00,WUHU216HW,2013-04-05 04:45:00,
2013-04-05 00:50:00,37.9,20.9,30.01,ESE,113,0.0,0.0,50,0.00,,,0.00,WUHU216HW,2013-04-05 04:50:00,
2013-04-05 00:55:00,37.5,21.0,30.00,ESE,113,0.0,0.0,51,0.00,,,0.00,WUHU216HW,2013-04-05 04:55:00,
2013-04-05 01:01:00,37.4,20.9,30.00,ESE,113,0.0,0.0,51,0.00,,,0.00,WUHU216HW,2013-04-05 05:01:00,
2013-04-05 01:06:00,37.2,21.1,30.00,ESE,113,0.0,0.0,52,0.00,,,0.00,WUHU216HW,2013-04-05 05:06:00,
2013-04-05 01:17:00,36.6,20.6,30.00,ESE,113,0.0,0.0,52,0.00,,,0.00,WUHU216HW,2013-04-05 05:17:00,
2013-04-05 01:22:00,36.5,20.9,30.00,ESE,113,0.0,0.0,53,0.00,,,0.00,WUHU216HW,2013-04-05 05:22:00,
2013-04-05 01:27:00,36.3,20.8,30.00,ESE,113,0.0,0.0,53,0.00,,,0.00,WUHU216HW,2013-04-05 05:27:00,
2013-04-05 01:33:00,36.1,20.6,30.00,ESE,113,0.0,0.0,53,0.00,,,0.00,WUHU216HW,2013-04-05 05:33:00,
2013-04-05 01:38:00,35.9,20.9,30.00,ESE,113,0.0,0.0,54,0.00,,,0.00,WUHU216HW,2013-04-05 05:38:00,
2013-04-05 01:44:00,35.9,20.9,30.00,ESE,113,0.0,0.0,54,0.00,,,0.00,WUHU216HW,2013-04-05 05:44:00,
2013-04-05 01:49:00,35.7,20.7,29.99,ESE,113,0.0,0.0,54,0.00,,,0.00,WUHU216HW,2013-04-05 05:49:00,
2013-04-05 01:55:00,35.7,20.7,29.99,ESE,113,0.0,0.0,54,0.00,,,0.00,WUHU216HW,2013-04-05 05:55:00,
2013-04-05 02:01:00,35.6,21.0,29.99,ESE,113,0.0,0.0,55,0.00,,,0.00,WUHU216HW,2013-04-05 06:01:00,
2013-04-05 02:06:00,35.4,20.8,29.99,ESE,113,0.0,0.0,55,0.00,,,0.00,WUHU216HW,2013-04-05 06:06:00,
2013-04-05 02:12:00,35.4,20.8,29.99,ESE,113,0.0,0.0,55,0.00,,,0.00,WUHU216HW,2013-04-05 06:12:00,
2013-04-05 02:17:00,35.4,21.2,29.98,ESE,113,0.0,0.0,56,0.00,,,0.00,WUHU216HW,2013-04-05 06:17:00,
2013-04-05 02:22:00,35.2,21.0,29.98,ESE,113,0.0,0.0,56,0.00,,,0.00,WUHU216HW,2013-04-05 06:22:00,
2013-04-05 02:27:00,35.2,21.0,29.99,ESE,113,0.0,0.0,56,0.00,,,0.00,WUHU216HW,2013-04-05 06:27:00,
2013-04-05 02:32:00,35.2,21.0,29.98,ESE,113,0.0,0.0,56,0.00,,,0.00,WUHU216HW,2013-04-05 06:32:00,
2013-04-05 02:38:00,34.8,20.7,29.98,ESE,113,0.0,0.0,56,0.00,,,0.00,WUHU216HW,2013-04-05 06:38:00,
2013-04-05 02:43:00,34.7,20.9,29.98,ESE,113,0.0,0.0,57,0.00,,,0.00,WUHU216HW,2013-04-05 06:43:00,
2013-04-05 02:49:00,34.3,20.6,29.98,ESE,113,0.0,0.0,57,0.00,,,0.00,WUHU216HW,2013-04-05 06:49:00,
2013-04-05 02:54:00,34.3,21.0,29.98,ESE,113,0.0,0.0,58,0.00,,,0.00,WUHU216HW,2013-04-05 06:54:00,
2013-04-05 02:59:00,33.9,20.6,29.98,ESE,113,0.0,0.0,58,0.00,,,0.00,WUHU216HW,2013-04-05 06:59:00,
2013-04-05 03:04:00,33.8,20.5,29.98,ESE,113,0.0,0.0,58,0.00,,,0.00,WUHU216HW,2013-04-05 07:04:00,
2013-04-05 03:10:00,33.6,20.3,29.97,ESE,113,0.0,0.0,58,0.00,,,0.00,WUHU216HW,2013-04-05 07:10:00,
2013-04-05 03:15:00,33.4,20.6,29.97,ESE,113,0.0,0.0,59,0.00,,,0.00,WUHU216HW,2013-04-05 07:15:00,
2013-04-05 03:20:00,33.0,20.1,29.98,ESE,113,0.0,0.0,59,0.00,,,0.00,WUHU216HW,2013-04-05 07:20:00,
2013-04-05 03:25:00,32.7,19.9,29.97,ESE,113,0.0,0.0,59,0.00,,,0.00,WUHU216HW,2013-04-05 07:25:00,
2013-04-05 03:31:00,32.5,19.8,29.97,ESE,113,0.0,0.0,59,0.00,,,0.00,WUHU216HW,2013-04-05 07:31:00,
2013-04-05 03:36:00,32.3,19.6,29.97,ESE,113,0.0,0.0,59,0.00,,,0.00,WUHU216HW,2013-04-05 07:36:00,
2013-04-05 03:47:00,31.8,19.5,29.97,ESE,113,0.0,0.0,60,0.00,,,0.00,WUHU216HW,2013-04-05 07:47:00,
2013-04-05 03:53:00,31.6,19.4,29.98,ESE,113,0.0,0.0,60,0.00,,,0.00,WUHU216HW,2013-04-05 07:53:00,
2013-04-05 03:58:00,31.4,19.5,29.98,ESE,113,0.0,0.0,61,0.00,,,0.00,WUHU216HW,2013-04-05 07:58:00,
2013-04-05 04:03:00,31.2,19.4,29.98,ESE,113,0.0,0.0,61,0.00,,,0.00,WUHU216HW,2013-04-05 08:03:00,
2013-04-05 04:09:00,31.1,19.2,29.97,ESE,113,0.0,0.0,61,0.00,,,0.00,WUHU216HW,2013-04-05 08:09:00,
2013-04-05 04:14:00,30.7,19.2,29.97,ESE,113,0.0,0.0,62,0.00,,,0.00,WUHU216HW,2013-04-05 08:14:00,
2013-04-05 04:20:00,30.7,19.2,29.98,ESE,113,0.0,0.0,62,0.00,,,0.00,WUHU216HW,2013-04-05 08:20:00,
2013-04-05 04:30:00,30.0,18.8,29.97,ESE,113,0.0,0.0,63,0.00,,,0.00,WUHU216HW,2013-04-05 08:30:00,
2013-04-05 04:36:00,30.0,18.8,29.98,ESE,113,0.0,0.0,63,0.00,,,0.00,WUHU216HW,2013-04-05 08:36:00,
2013-04-05 04:42:00,29.8,19.0,29.98,ESE,113,0.0,0.0,64,0.00,,,0.00,WUHU216HW,2013-04-05 08:42:00,
2013-04-05 04:47:00,29.4,18.7,29.98,ESE,113,0.0,0.0,64,0.00,,,0.00,WUHU216HW,2013-04-05 08:47:00,
2013-04-05 04:53:00,29.4,19.1,29.98,ESE,113,0.0,0.0,65,0.00,,,0.00,WUHU216HW,2013-04-05 08:53:00,
2013-04-05 04:59:00,29.3,18.9,29.98,ESE,113,0.0,0.0,65,0.00,,,0.00,WUHU216HW,2013-04-05 08:59:00,
2013-04-05 05:04:00,29.1,19.1,29.98,ESE,113,0.0,0.0,66,0.00,,,0.00,WUHU216HW,2013-04-05 09:04:00,
2013-04-05 05:09:00,29.1,19.1,29.99,ESE,113,0.0,0.0,66,0.00,,,0.00,WUHU216HW,2013-04-05 09:09:00,
2013-04-05 05:20:00,28.7,18.8,29.99,ESE,113,0.0,0.0,66,0.00,,,0.00,WUHU216HW,2013-04-05 09:20:00,
2013-04-05 05:26:00,28.5,19.0,29.99,ESE,113,0.0,0.0,67,0.00,,,0.00,WUHU216HW,2013-04-05 09:26:00,
2013-04-05 05:31:00,28.5,19.3,29.99,ESE,113,0.0,0.0,68,0.00,,,0.00,WUHU216HW,2013-04-05 09:31:00,
2013-04-05 05:42:00,28.2,19.0,30.00,ESE,113,0.0,0.0,68,0.00,,,0.00,WUHU216HW,2013-04-05 09:42:00,
2013-04-05 05:47:00,28.2,19.0,29.99,ESE,113,0.0,0.0,68,0.00,,,0.00,WUHU216HW,2013-04-05 09:47:00,
2013-04-05 05:57:00,27.6,18.5,30.00,ESE,113,0.0,0.0,68,0.00,,,0.00,WUHU216HW,2013-04-05 09:57:00,
2013-04-05 06:03:00,27.6,18.5,30.00,ESE,113,0.0,0.0,68,0.00,,,0.00,WUHU216HW,2013-04-05 10:03:00,
2013-04-05 06:08:00,27.5,18.6,30.00,ESE,113,0.0,0.0,69,0.00,,,0.00,WUHU216HW,2013-04-05 10:08:00,
2013-04-05 06:13:00,27.5,18.6,30.00,ESE,113,0.0,0.0,69,0.00,,,0.00,WUHU216HW,2013-04-05 10:13:00,
2013-04-05 06:19:00,27.3,18.5,30.00,ESE,113,0.0,0.0,69,0.00,,,0.00,WUHU216HW,2013-04-05 10:19:00,
2013-04-05 06:24:00,27.3,18.8,30.00,ESE,113,0.0,0.0,70,0.00,,,0.00,WUHU216HW,2013-04-05 10:24:00,
2013-04-05 06:35:00,27.1,18.6,30.00,ESE,113,0.0,0.0,70,0.00,,,0.00,WUHU216HW,2013-04-05 10:35:00,
2013-04-05 06:40:00,26.9,18.5,30.00,ESE,113,0.0,0.0,70,0.00,,,0.00,WUHU216HW,2013-04-05 10:40:00,
2013-04-05 06:45:00,26.9,18.8,30.00,ESE,113,0.0,0.0,71,0.00,,,0.00,WUHU216HW,2013-04-05 10:45:00,
2013-04-05 06:50:00,26.7,18.6,30.00,ESE,113,0.0,0.0,71,0.00,,,0.00,WUHU216HW,2013-04-05 10:50:00,
2013-04-05 06:56:00,26.7,18.6,30.00,ESE,113,0.0,0.0,71,0.00,,,0.00,WUHU216HW,2013-04-05 10:56:00,
2013-04-05 07:01:00,26.6,18.4,30.00,ESE,113,0.0,0.0,71,0.00,,,0.00,WUHU216HW,2013-04-05 11:01:00,
2013-04-05 07:12:00,26.7,19.2,30.01,ESE,113,0.0,0.0,73,0.00,,,0.00,WUHU216HW,2013-04-05 11:12:00,
2013-04-05 07:18:00,26.9,19.4,30.01,ESE,113,0.0,0.0,73,0.00,,,0.00,WUHU216HW,2013-04-05 11:18:00,
2013-04-05 07:24:00,27.1,19.5,30.01,ESE,113,0.0,0.0,73,0.00,,,0.00,WUHU216HW,2013-04-05 11:24:00,
2013-04-05 07:29:00,27.6,20.4,30.01,ESE,113,0.0,0.0,74,0.00,,,0.00,WUHU216HW,2013-04-05 11:29:00,
2013-04-05 07:34:00,28.2,20.9,30.01,ESE,113,0.0,0.0,74,0.00,,,0.00,WUHU216HW,2013-04-05 11:34:00,
2013-04-05 07:40:00,30.0,23.3,30.01,ESE,113,0.0,0.0,76,0.00,,,0.00,WUHU216HW,2013-04-05 11:40:00,
2013-04-05 07:45:00,31.6,25.2,30.01,ESE,113,0.0,0.0,77,0.00,,,0.00,WUHU216HW,2013-04-05 11:45:00,
2013-04-05 07:51:00,32.9,25.7,30.01,ESE,113,0.0,0.0,75,0.00,,,0.00,WUHU216HW,2013-04-05 11:51:00,
2013-04-05 07:56:00,33.4,25.9,30.01,ESE,113,0.0,0.0,74,0.00,,,0.00,WUHU216HW,2013-04-05 11:56:00,
2013-04-05 08:02:00,33.6,25.7,30.01,ESE,113,0.0,0.0,73,0.00,,,0.00,WUHU216HW,2013-04-05 12:02:00,
2013-04-05 08:07:00,34.3,26.8,30.01,ESE,113,0.0,0.0,74,0.00,,,0.00,WUHU216HW,2013-04-05 12:07:00,
2013-04-05 08:13:00,35.7,28.2,30.01,ESE,113,0.0,0.0,74,0.00,,,0.00,WUHU216HW,2013-04-05 12:13:00,
2013-04-05 08:18:00,37.2,29.3,30.02,ESE,113,0.0,0.0,73,0.00,,,0.00,WUHU216HW,2013-04-05 12:18:00,
2013-04-05 08:24:00,38.8,30.8,30.02,ESE,113,0.0,0.0,73,0.00,,,0.00,WUHU216HW,2013-04-05 12:24:00,
2013-04-05 08:29:00,41.1,32.5,30.02,ESE,113,0.0,0.0,71,0.00,,,0.00,WUHU216HW,2013-04-05 12:29:00,
2013-04-05 08:34:00,42.9,33.5,30.02,ESE,113,0.0,0.0,69,0.00,,,0.00,WUHU216HW,2013-04-05 12:34:00,
2013-04-05 08:40:00,44.4,34.1,30.02,ESE,113,0.0,0.0,67,0.00,,,0.00,WUHU216HW,2013-04-05 12:40:00,
2013-04-05 08:45:00,45.1,33.6,30.02,ESE,113,0.0,0.0,64,0.00,,,0.00,WUHU216HW,2013-04-05 12:45:00,
2013-04-05 08:50:00,44.9,33.0,30.02,ESE,113,0.0,0.0,63,0.00,,,0.00,WUHU216HW,2013-04-05 12:50:00,
2013-04-05 08:56:00,44.7,32.9,30.02,ESE,113,0.0,0.0,63,0.00,,,0.00,WUHU216HW,2013-04-05 12:56:00,
2013-04-05 09:06:00,43.7,31.8,30.01,ESE,113,0.0,0.0,63,0.00,,,0.00,WUHU216HW,2013-04-05 13:06:00,
2013-04-05 09:12:00,43.5,31.7,30.02,East,90,0.0,0.0,63,0.00,,,0.00,WUHU216HW,2013-04-05 13:12:00,
2013-04-05 09:17:00,43.7,32.2,30.02,East,90,0.0,0.0,64,0.00,,,0.00,WUHU216HW,2013-04-05 13:17:00,
2013-04-05 09:23:00,44.2,32.4,30.01,NW,315,0.0,0.0,63,0.00,,,0.00,WUHU216HW,2013-04-05 13:23:00,
2013-04-05 09:29:00,44.7,32.5,30.01,West,270,0.0,0.0,62,0.00,,,0.00,WUHU216HW,2013-04-05 13:29:00,
2013-04-05 09:34:00,45.1,32.5,30.01,West,270,0.0,0.0,61,0.00,,,0.00,WUHU216HW,2013-04-05 13:34:00,
2013-04-05 09:39:00,45.6,32.9,30.01,NW,315,0.0,0.0,61,0.00,,,0.00,WUHU216HW,2013-04-05 13:39:00,
2013-04-05 09:44:00,46.5,32.9,30.01,West,270,0.0,0.0,59,0.00,,,0.00,WUHU216HW,2013-04-05 13:44:00,
2013-04-05 09:50:00,46.7,32.8,30.01,West,270,0.0,0.0,58,0.00,,,0.00,WUHU216HW,2013-04-05 13:50:00,
2013-04-05 09:56:00,47.4,32.9,30.01,WSW,248,0.0,0.0,57,0.00,,,0.00,WUHU216HW,2013-04-05 13:56:00,
2013-04-05 10:01:00,48.3,32.4,30.02,NNE,23,0.0,0.0,54,0.00,,,0.00,WUHU216HW,2013-04-05 14:01:00,
2013-04-05 10:11:00,48.9,31.5,30.02,NW,315,0.0,4.6,51,0.00,,,0.00,WUHU216HW,2013-04-05 14:11:00,
2013-04-05 10:22:00,49.8,32.0,30.02,North,0,0.0,0.0,50,0.00,,,0.00,WUHU216HW,2013-04-05 14:22:00,
2013-04-05 10:28:00,50.3,31.9,30.02,North,0,0.0,0.0,49,0.00,,,0.00,WUHU216HW,2013-04-05 14:28:00,
2013-04-05 10:34:00,50.9,31.8,30.02,NW,315,0.0,0.0,48,0.00,,,0.00,WUHU216HW,2013-04-05 14:34:00,
2013-04-05 10:40:00,51.8,32.1,30.02,NNE,23,0.0,0.0,47,0.00,,,0.00,WUHU216HW,2013-04-05 14:40:00,
2013-04-05 10:45:00,52.3,32.6,30.02,WNW,293,6.2,6.2,47,0.00,,,0.00,WUHU216HW,2013-04-05 14:45:00,
2013-04-05 10:50:00,52.5,32.2,30.02,NW,315,0.0,6.2,46,0.00,,,0.00,WUHU216HW,2013-04-05 14:50:00,
2013-04-05 10:55:00,52.7,32.3,30.02,West,270,0.0,0.0,46,0.00,,,0.00,WUHU216HW,2013-04-05 14:55:00,
2013-04-05 11:01:00,53.4,33.0,30.02,WNW,293,0.0,4.6,46,0.00,,,0.00,WUHU216HW,2013-04-05 15:01:00,
2013-04-05 11:06:00,53.9,32.9,30.02,NW,315,0.0,4.6,45,0.00,,,0.00,WUHU216HW,2013-04-05 15:06:00,
2013-04-05 11:12:00,54.3,32.7,30.02,NNE,23,0.0,0.0,44,0.00,,,0.00,WUHU216HW,2013-04-05 15:12:00,
2013-04-05 11:18:00,54.3,32.7,30.02,NNW,338,0.0,0.0,44,0.00,,,0.00,WUHU216HW,2013-04-05 15:18:00,
2013-04-05 11:28:00,55.0,33.3,30.02,WNW,293,0.0,0.0,44,0.00,,,0.00,WUHU216HW,2013-04-05 15:28:00,
2013-04-05 11:34:00,55.4,33.1,30.02,WNW,293,0.0,0.0,43,0.00,,,0.00,WUHU216HW,2013-04-05 15:34:00,
2013-04-05 11:39:00,55.7,33.4,30.03,NNE,23,0.0,6.2,43,0.00,,,0.00,WUHU216HW,2013-04-05 15:39:00,
2013-04-05 11:45:00,55.9,33.0,30.02,NNE,23,4.0,6.2,42,0.00,,,0.00,WUHU216HW,2013-04-05 15:45:00,
2013-04-05 11:50:00,55.9,33.0,30.02,NNE,23,0.0,4.0,42,0.00,,,0.00,WUHU216HW,2013-04-05 15:50:00,
2013-04-05 11:55:00,56.3,33.4,30.02,NW,315,7.6,7.6,42,0.00,,,0.00,WUHU216HW,2013-04-05 15:55:00,
2013-04-05 12:01:00,56.4,33.5,30.02,NNE,23,0.0,7.6,42,0.00,,,0.00,WUHU216HW,2013-04-05 16:01:00,
2013-04-05 12:06:00,56.4,33.5,30.02,WNW,293,4.6,7.6,42,0.00,,,0.00,WUHU216HW,2013-04-05 16:06:00,
2013-04-05 12:12:00,56.8,33.8,30.02,WNW,293,3.5,4.9,42,0.00,,,0.00,WUHU216HW,2013-04-05 16:12:00,
2013-04-05 12:23:00,57.3,34.9,30.01,NNW,338,0.0,7.1,43,0.00,,,0.00,WUHU216HW,2013-04-05 16:23:00,
2013-04-05 12:34:00,57.9,35.4,30.01,NNE,23,5.1,11.8,43,0.00,,,0.00,WUHU216HW,2013-04-05 16:34:00,
2013-04-05 12:40:00,57.9,35.4,30.01,NW,315,4.4,5.8,43,0.00,,,0.00,WUHU216HW,2013-04-05 16:40:00,
2013-04-05 12:46:00,58.1,35.6,30.01,West,270,7.1,7.1,43,0.00,,,0.00,WUHU216HW,2013-04-05 16:46:00,
2013-04-05 12:52:00,58.6,36.1,30.01,WNW,293,6.2,7.1,43,0.00,,,0.00,WUHU216HW,2013-04-05 16:52:00,
2013-04-05 12:57:00,58.4,35.3,30.01,NNE,23,0.0,6.2,42,0.00,,,0.00,WUHU216HW,2013-04-05 16:57:00,
2013-04-05 13:07:00,58.6,35.5,30.01,NW,315,7.3,7.3,42,0.00,,,0.00,WUHU216HW,2013-04-05 17:07:00,
2013-04-05 13:12:00,58.8,36.2,30.01,NW,315,0.0,10.9,43,0.00,,,0.00,WUHU216HW,2013-04-05 17:12:00,
2013-04-05 13:23:00,59.0,35.8,30.00,NW,315,5.8,6.9,42,0.00,,,0.00,WUHU216HW,2013-04-05 17:23:00,
2013-04-05 13:28:00,58.8,35.6,30.00,NNW,338,5.3,6.9,42,0.00,,,0.00,WUHU216HW,2013-04-05 17:28:00,
2013-04-05 13:33:00,58.8,35.6,30.00,North,0,5.8,6.9,42,0.00,,,0.00,WUHU216HW,2013-04-05 17:33:00,
2013-04-05 13:39:00,58.8,35.6,30.00,NNW,338,4.2,6.9,42,0.00,,,0.00,WUHU216HW,2013-04-05 17:39:00,
2013-04-05 13:45:00,58.8,35.1,30.00,NNW,338,6.7,10.2,41,0.00,,,0.00,WUHU216HW,2013-04-05 17:45:00,
2013-04-05 13:50:00,58.8,35.6,30.00,NW,315,10.2,10.2,42,0.00,,,0.00,WUHU216HW,2013-04-05 17:50:00,
2013-04-05 13:56:00,59.3,36.1,30.00,NNW,338,7.1,10.2,42,0.00,,,0.00,WUHU216HW,2013-04-05 17:56:00,
2013-04-05 14:02:00,59.7,35.9,30.00,NNE,23,7.1,8.2,41,0.00,,,0.00,WUHU216HW,2013-04-05 18:02:00,
2013-04-05 14:08:00,59.7,35.9,30.00,NNW,338,2.4,7.6,41,0.00,,,0.00,WUHU216HW,2013-04-05 18:08:00,
2013-04-05 14:18:00,60.0,36.2,29.99,NW,315,14.3,14.3,41,0.00,,,0.00,WUHU216HW,2013-04-05 18:18:00,
2013-04-05 14:23:00,60.4,36.5,30.00,NNE,23,11.6,14.3,41,0.00,,,0.00,WUHU216HW,2013-04-05 18:23:00,
2013-04-05 14:29:00,60.6,36.7,30.00,NNE,23,0.0,14.3,41,0.00,,,0.00,WUHU216HW,2013-04-05 18:29:00,
2013-04-05 14:34:00,60.4,35.9,30.00,North,0,5.8,7.1,40,0.00,,,0.00,WUHU216HW,2013-04-05 18:34:00,
2013-04-05 14:40:00,60.6,36.1,30.00,WSW,248,0.0,7.1,40,0.00,,,0.00,WUHU216HW,2013-04-05 18:40:00,
2013-04-05 14:45:00,61.3,36.8,30.00,WSW,248,0.0,8.0,40,0.00,,,0.00,WUHU216HW,2013-04-05 18:45:00,
2013-04-05 14:50:00,61.5,36.9,30.00,NNW,338,6.9,8.0,40,0.00,,,0.00,WUHU216HW,2013-04-05 18:50:00,
2013-04-05 14:56:00,60.6,35.4,30.00,North,0,0.0,10.7,39,0.00,,,0.00,WUHU216HW,2013-04-05 18:56:00,
2013-04-05 15:01:00,60.0,35.6,30.00,WSW,248,0.0,10.7,40,0.00,,,0.00,WUHU216HW,2013-04-05 19:01:00,
2013-04-05 15:07:00,59.7,35.3,30.00,NNW,338,6.4,11.6,40,0.00,,,0.00,WUHU216HW,2013-04-05 19:07:00,
2013-04-05 15:18:00,58.8,34.5,30.00,NNW,338,7.8,8.2,40,0.00,,,0.00,WUHU216HW,2013-04-05 19:18:00,
2013-04-05 15:24:00,57.7,33.5,30.00,WSW,248,2.2,8.2,40,0.00,,,0.00,WUHU216HW,2013-04-05 19:24:00,
2013-04-05 15:29:00,57.5,33.9,29.99,WSW,248,6.0,7.8,41,0.00,,,0.00,WUHU216HW,2013-04-05 19:29:00,
2013-04-05 15:35:00,58.4,34.7,30.00,WSW,248,6.2,10.9,41,0.00,,,0.00,WUHU216HW,2013-04-05 19:35:00,
2013-04-05 15:41:00,58.8,34.5,29.99,WSW,248,17.8,17.8,40,0.00,,,0.00,WUHU216HW,2013-04-05 19:41:00,
2013-04-05 15:47:00,58.8,34.5,30.00,NW,315,3.8,17.8,40,0.00,,,0.00,WUHU216HW,2013-04-05 19:47:00,
2013-04-05 15:52:00,58.8,34.5,29.99,NE,45,1.7,17.8,40,0.00,,,0.00,WUHU216HW,2013-04-05 19:52:00,
2013-04-05 16:02:00,58.8,34.5,30.00,North,0,0.0,9.8,40,0.00,,,0.00,WUHU216HW,2013-04-05 20:02:00,
2013-04-05 16:14:00,58.4,33.5,30.00,WSW,248,6.9,7.8,39,0.00,,,0.00,WUHU216HW,2013-04-05 20:14:00,
2013-04-05 16:19:00,58.2,33.3,30.00,WSW,248,0.0,7.8,39,0.00,,,0.00,WUHU216HW,2013-04-05 20:19:00,
2013-04-05 16:24:00,58.8,33.8,29.99,NNW,338,0.0,6.9,39,0.00,,,0.00,WUHU216HW,2013-04-05 20:24:00,
2013-04-05 16:29:00,58.8,33.1,30.00,WSW,248,0.0,6.2,38,0.00,,,0.00,WUHU216HW,2013-04-05 20:29:00,
2013-04-05 16:35:00,58.6,32.9,30.00,WSW,248,5.8,5.8,38,0.00,,,0.00,WUHU216HW,2013-04-05 20:35:00,
2013-04-05 16:40:00,58.6,32.9,30.00,WSW,248,8.0,8.2,38,0.00,,,0.00,WUHU216HW,2013-04-05 20:40:00,
2013-04-05 16:45:00,58.1,32.4,30.00,WSW,248,5.5,8.2,38,0.00,,,0.00,WUHU216HW,2013-04-05 20:45:00,
2013-04-05 16:50:00,57.9,32.3,30.00,WSW,248,5.1,9.3,38,0.00,,,0.00,WUHU216HW,2013-04-05 20:50:00,
2013-04-05 16:56:00,58.1,32.4,30.00,WSW,248,0.0,9.3,38,0.00,,,0.00,WUHU216HW,2013-04-05 20:56:00,
2013-04-05 17:02:00,58.1,32.4,30.00,WSW,248,9.3,9.3,38,0.00,,,0.00,WUHU216HW,2013-04-05 21:02:00,
2013-04-05 17:08:00,58.1,31.7,30.01,WSW,248,8.0,9.3,37,0.00,,,0.00,WUHU216HW,2013-04-05 21:08:00,
2013-04-05 17:14:00,57.9,31.6,30.01,WSW,248,0.0,9.3,37,0.00,,,0.00,WUHU216HW,2013-04-05 21:14:00,
2013-04-05 17:24:00,57.0,30.8,30.01,WSW,248,0.0,6.2,37,0.00,,,0.00,WUHU216HW,2013-04-05 21:24:00,
2013-04-05 17:29:00,57.0,31.5,30.01,WSW,248,0.0,6.2,38,0.00,,,0.00,WUHU216HW,2013-04-05 21:29:00,
2013-04-05 17:35:00,56.8,31.3,30.01,WSW,248,0.0,0.8,38,0.00,,,0.00,WUHU216HW,2013-04-05 21:35:00,
2013-04-05 17:41:00,56.8,31.3,30.02,WSW,248,0.0,4.0,38,0.00,,,0.00,WUHU216HW,2013-04-05 21:41:00,
2013-04-05 17:52:00,56.4,30.3,30.02,WSW,248,0.0,6.0,37,0.00,,,0.00,WUHU216HW,2013-04-05 21:52:00,
2013-04-05 18:02:00,56.1,30.7,30.03,WSW,248,0.0,7.3,38,0.00,,,0.00,WUHU216HW,2013-04-05 22:02:00,
2013-04-05 18:08:00,55.7,30.3,30.03,WSW,248,0.0,7.3,38,0.00,,,0.00,WUHU216HW,2013-04-05 22:08:00,
2013-04-05 18:14:00,55.2,29.8,30.03,North,0,4.4,8.7,38,0.00,,,0.00,WUHU216HW,2013-04-05 22:14:00,
2013-04-05 18:19:00,55.2,29.8,30.03,North,0,0.0,9.1,38,0.00,,,0.00,WUHU216HW,2013-04-05 22:19:00,
2013-04-05 18:30:00,54.5,29.9,30.04,NNW,338,5.1,11.1,39,0.00,,,0.00,WUHU216HW,2013-04-05 22:30:00,
2013-04-05 18:36:00,54.1,29.6,30.05,NNW,338,4.0,7.1,39,0.00,,,0.00,WUHU216HW,2013-04-05 22:36:00,
2013-04-05 18:42:00,53.7,30.0,30.05,North,0,5.5,6.7,40,0.00,,,0.00,WUHU216HW,2013-04-05 22:42:00,
2013-04-05 18:52:00,52.7,29.0,30.06,NNW,338,3.3,8.0,40,0.00,,,0.00,WUHU216HW,2013-04-05 22:52:00,
2013-04-05 19:14:00,51.0,28.1,30.07,North,0,5.1,5.1,41,0.00,,,0.00,WUHU216HW,2013-04-05 23:14:00,
2013-04-05 19:19:00,50.5,27.8,30.07,North,0,0.0,5.1,41,0.00,,,0.00,WUHU216HW,2013-04-05 23:19:00,
2013-04-05 19:30:00,49.6,27.3,30.07,NNE,23,5.3,5.3,42,0.00,,,0.00,WUHU216HW,2013-04-05 23:30:00,
2013-04-05 19:35:00,49.2,27.0,30.08,North,0,6.7,7.1,42,0.00,,,0.00,WUHU216HW,2013-04-05 23:35:00,
2013-04-05 19:46:00,48.5,26.3,30.08,North,0,0.0,6.7,42,0.00,,,0.00,WUHU216HW,2013-04-05 23:46:00,
2013-04-05 19:57:00,47.8,25.7,30.09,NNW,338,0.0,7.3,42,0.00,,,0.00,WUHU216HW,2013-04-05 23:57:00,
2013-04-05 20:02:00,47.3,25.2,30.09,NNW,338,0.0,6.9,42,0.00,,,0.00,WUHU216HW,2013-04-06 00:02:00,
2013-04-05 20:13:00,46.5,25.6,30.10,North,0,0.0,8.0,44,0.00,,,0.00,WUHU216HW,2013-04-06 00:13:00,
2013-04-05 20:19:00,46.2,25.3,30.10,NNW,338,0.6,8.0,44,0.00,,,0.00,WUHU216HW,2013-04-06 00:19:00,
2013-04-05 20:24:00,46.0,25.1,30.10,North,0,5.3,5.3,44,0.00,,,0.00,WUHU216HW,2013-04-06 00:24:00,
2013-04-05 20:29:00,45.6,25.4,30.11,North,0,0.0,5.3,45,0.00,,,0.00,WUHU216HW,2013-04-06 00:29:00,
2013-04-05 20:35:00,45.3,25.0,30.12,North,0,5.5,5.5,45,0.00,,,0.00,WUHU216HW,2013-04-06 00:35:00,
2013-04-05 20:41:00,44.9,24.7,30.12,North,0,3.8,5.5,45,0.00,,,0.00,WUHU216HW,2013-04-06 00:41:00,
2013-04-05 20:51:00,44.4,24.2,30.13,NNW,338,0.0,3.8,45,0.00,,,0.00,WUHU216HW,2013-04-06 00:51:00,
2013-04-05 20:57:00,44.2,24.1,30.13,NW,315,0.0,4.9,45,0.00,,,0.00,WUHU216HW,2013-04-06 00:57:00,
2013-04-05 21:02:00,43.7,23.6,30.13,NW,315,0.0,4.9,45,0.00,,,0.00,WUHU216HW,2013-04-06 01:02:00,
2013-04-05 21:07:00,43.5,23.4,30.14,NW,315,0.0,0.0,45,0.00,,,0.00,WUHU216HW,2013-04-06 01:07:00,
2013-04-05 21:12:00,43.3,23.3,30.14,NNW,338,0.0,0.0,45,0.00,,,0.00,WUHU216HW,2013-04-06 01:12:00,
2013-04-05 21:28:00,42.4,23.0,30.16,NW,315,0.0,1.1,46,0.00,,,0.00,WUHU216HW,2013-04-06 01:28:00,
2013-04-05 21:34:00,42.0,23.1,30.16,North,0,6.9,6.9,47,0.00,,,0.00,WUHU216HW,2013-04-06 01:34:00,
2013-04-05 21:40:00,41.9,23.0,30.17,WNW,293,2.0,6.9,47,0.00,,,0.00,WUHU216HW,2013-04-06 01:40:00,
2013-04-05 21:45:00,41.5,23.1,30.17,North,0,0.0,6.9,48,0.00,,,0.00,WUHU216HW,2013-04-06 01:45:00,
2013-04-05 21:51:00,41.3,22.6,30.17,NNE,23,0.0,6.7,47,0.00,,,0.00,WUHU216HW,2013-04-06 01:51:00,
2013-04-05 21:56:00,41.1,22.8,30.17,NNW,338,0.0,0.0,48,0.00,,,0.00,WUHU216HW,2013-04-06 01:56:00,
2013-04-05 22:01:00,40.8,22.5,30.17,NW,315,0.0,0.0,48,0.00,,,0.00,WUHU216HW,2013-04-06 02:01:00,
2013-04-05 22:06:00,40.8,22.8,30.17,NW,315,0.0,5.5,49,0.00,,,0.00,WUHU216HW,2013-04-06 02:06:00,
2013-04-05 22:16:00,40.2,22.5,30.18,NNW,338,0.0,7.1,49,0.00,,,0.00,WUHU216HW,2013-04-06 02:16:00,
2013-04-05 22:21:00,39.9,22.2,30.18,North,0,5.8,5.8,49,0.00,,,0.00,WUHU216HW,2013-04-06 02:21:00,
2013-04-05 22:27:00,39.7,22.5,30.18,NNW,338,0.0,8.9,50,0.00,,,0.00,WUHU216HW,2013-04-06 02:27:00,
2013-04-05 22:43:00,39.0,22.3,30.18,North,0,0.0,0.0,51,0.00,,,0.00,WUHU216HW,2013-04-06 02:43:00,
2013-04-05 22:59:00,38.4,21.8,30.19,NNW,338,0.0,7.3,51,0.00,,,0.00,WUHU216HW,2013-04-06 02:59:00,
2013-04-05 23:05:00,38.3,21.7,30.19,North,0,0.0,7.3,51,0.00,,,0.00,WUHU216HW,2013-04-06 03:05:00,
2013-04-05 23:10:00,37.9,21.3,30.19,NNW,338,0.0,0.0,51,0.00,,,0.00,WUHU216HW,2013-04-06 03:10:00,
2013-04-05 23:20:00,37.5,21.0,30.19,North,0,0.0,6.7,51,0.00,,,0.00,WUHU216HW,2013-04-06 03:20:00,
2013-04-05 23:25:00,37.5,21.0,30.19,North,0,0.0,2.4,51,0.00,,,0.00,WUHU216HW,2013-04-06 03:25:00,
2013-04-05 23:31:00,37.2,21.1,30.19,North,0,0.0,2.0,52,0.00,,,0.00,WUHU216HW,2013-04-06 03:31:00,
2013-04-05 23:36:00,37.2,20.7,30.19,NNW,338,0.0,7.3,51,0.00,,,0.00,WUHU216HW,2013-04-06 03:36:00,
2013-04-05 23:42:00,37.0,21.0,30.20,NNE,23,0.0,7.3,52,0.00,,,0.00,WUHU216HW,2013-04-06 03:42:00,
2013-04-05 23:47:00,36.6,20.6,30.20,NNW,338,0.0,4.4,52,0.00,,,0.00,WUHU216HW,2013-04-06 03:47:00,
2013-04-05 23:52:00,36.5,20.5,30.20,North,0,0.0,4.4,52,0.00,,,0.00,WUHU216HW,2013-04-06 03:52:00,